sensor_id;sensor_type;location;lat;lon;timestamp;P1;durP1;ratioP1;P2;durP2;ratioP2
18881;SDS011;9573;50.948;11.600;2022-09-09T00:02:08;13.20;;;4.00;;
18881;SDS011;9573;50.948;11.600;2022-09-09T00:04:45;13.63;;;3.40;;
18881;SDS011;9573;50.948;11.600;2022-09-09T00:07:28;12.57;;;3.70;;
18881;SDS011;9573;50.948;11.600;2022-09-09T00:10:09;9.37;;;3.60;;
18881;SDS011;9573;50.948;11.600;2022-09-09T00:12:50;9.43;;;3.67;;
18881;SDS011;9573;50.948;11.600;2022-09-09T00:15:25;11.40;;;3.70;;
18881;SDS011;9573;50.948;11.600;2022-09-09T00:18:03;10.57;;;3.60;;
18881;SDS011;9573;50.948;11.600;2022-09-09T00:20:42;12.00;;;3.60;;
18881;SDS011;9573;50.948;11.600;2022-09-09T00:23:18;14.53;;;3.77;;
18881;SDS011;9573;50.948;11.600;2022-09-09T00:25:53;9.87;;;3.87;;
18881;SDS011;9573;50.948;11.600;2022-09-09T00:28:33;8.60;;;3.83;;
18881;SDS011;9573;50.948;11.600;2022-09-09T00:31:09;11.90;;;4.07;;
18881;SDS011;9573;50.948;11.600;2022-09-09T00:33:40;11.50;;;3.60;;
18881;SDS011;9573;50.948;11.600;2022-09-09T00:36:09;8.80;;;3.67;;
18881;SDS011;9573;50.948;11.600;2022-09-09T00:38:42;14.43;;;3.93;;
18881;SDS011;9573;50.948;11.600;2022-09-09T00:41:15;9.87;;;3.57;;
18881;SDS011;9573;50.948;11.600;2022-09-09T00:43:53;11.63;;;3.83;;
18881;SDS011;9573;50.948;11.600;2022-09-09T00:46:32;10.97;;;3.73;;
18881;SDS011;9573;50.948;11.600;2022-09-09T00:49:20;9.47;;;3.70;;
18881;SDS011;9573;50.948;11.600;2022-09-09T00:51:59;12.80;;;4.10;;
18881;SDS011;9573;50.948;11.600;2022-09-09T00:54:40;9.87;;;3.50;;
18881;SDS011;9573;50.948;11.600;2022-09-09T00:57:22;14.60;;;3.87;;
18881;SDS011;9573;50.948;11.600;2022-09-09T00:59:58;12.50;;;4.00;;
18881;SDS011;9573;50.948;11.600;2022-09-09T01:02:45;15.30;;;3.60;;
18881;SDS011;9573;50.948;11.600;2022-09-09T01:05:33;9.93;;;3.80;;
18881;SDS011;9573;50.948;11.600;2022-09-09T01:08:10;11.57;;;3.57;;
18881;SDS011;9573;50.948;11.600;2022-09-09T01:10:49;13.53;;;3.90;;
18881;SDS011;9573;50.948;11.600;2022-09-09T01:13:20;11.97;;;3.80;;
18881;SDS011;9573;50.948;11.600;2022-09-09T01:15:51;8.47;;;3.80;;
18881;SDS011;9573;50.948;11.600;2022-09-09T01:18:21;10.67;;;3.70;;
18881;SDS011;9573;50.948;11.600;2022-09-09T01:20:54;10.40;;;3.73;;
18881;SDS011;9573;50.948;11.600;2022-09-09T01:26:28;11.00;;;3.60;;
18881;SDS011;9573;50.948;11.600;2022-09-09T01:28:58;11.63;;;3.73;;
18881;SDS011;9573;50.948;11.600;2022-09-09T01:31:26;11.33;;;3.63;;
18881;SDS011;9573;50.948;11.600;2022-09-09T01:33:58;14.43;;;4.13;;
18881;SDS011;9573;50.948;11.600;2022-09-09T01:36:27;10.97;;;3.60;;
18881;SDS011;9573;50.948;11.600;2022-09-09T01:39:01;8.90;;;3.60;;
18881;SDS011;9573;50.948;11.600;2022-09-09T01:41:30;9.23;;;3.50;;
18881;SDS011;9573;50.948;11.600;2022-09-09T01:43:57;10.10;;;3.80;;
18881;SDS011;9573;50.948;11.600;2022-09-09T01:46:24;8.53;;;3.50;;
18881;SDS011;9573;50.948;11.600;2022-09-09T01:48:53;10.23;;;3.87;;
18881;SDS011;9573;50.948;11.600;2022-09-09T01:51:21;15.10;;;3.70;;
18881;SDS011;9573;50.948;11.600;2022-09-09T01:53:49;10.67;;;3.73;;
18881;SDS011;9573;50.948;11.600;2022-09-09T01:56:19;10.20;;;4.10;;
18881;SDS011;9573;50.948;11.600;2022-09-09T01:59:01;14.20;;;3.43;;
18881;SDS011;9573;50.948;11.600;2022-09-09T02:01:43;14.73;;;3.70;;
18881;SDS011;9573;50.948;11.600;2022-09-09T02:04:24;8.33;;;3.20;;
18881;SDS011;9573;50.948;11.600;2022-09-09T02:07:03;10.60;;;3.40;;
18881;SDS011;9573;50.948;11.600;2022-09-09T02:09:39;12.60;;;3.67;;
18881;SDS011;9573;50.948;11.600;2022-09-09T02:12:11;11.40;;;3.53;;
18881;SDS011;9573;50.948;11.600;2022-09-09T02:14:46;11.03;;;3.60;;
18881;SDS011;9573;50.948;11.600;2022-09-09T02:17:19;13.07;;;4.00;;
18881;SDS011;9573;50.948;11.600;2022-09-09T02:19:53;12.03;;;3.90;;
18881;SDS011;9573;50.948;11.600;2022-09-09T02:22:31;9.43;;;3.63;;
18881;SDS011;9573;50.948;11.600;2022-09-09T02:25:02;15.40;;;3.90;;
18881;SDS011;9573;50.948;11.600;2022-09-09T02:27:31;9.47;;;3.90;;
18881;SDS011;9573;50.948;11.600;2022-09-09T02:30:00;10.27;;;3.73;;
18881;SDS011;9573;50.948;11.600;2022-09-09T02:32:29;14.07;;;4.10;;
18881;SDS011;9573;50.948;11.600;2022-09-09T02:35:03;13.20;;;4.27;;
18881;SDS011;9573;50.948;11.600;2022-09-09T02:37:36;11.43;;;3.97;;
18881;SDS011;9573;50.948;11.600;2022-09-09T02:40:07;11.73;;;3.90;;
18881;SDS011;9573;50.948;11.600;2022-09-09T02:42:38;16.40;;;4.80;;
18881;SDS011;9573;50.948;11.600;2022-09-09T02:45:08;14.73;;;4.80;;
18881;SDS011;9573;50.948;11.600;2022-09-09T02:47:38;14.13;;;4.10;;
18881;SDS011;9573;50.948;11.600;2022-09-09T02:50:12;14.03;;;4.50;;
18881;SDS011;9573;50.948;11.600;2022-09-09T02:52:46;13.20;;;4.57;;
18881;SDS011;9573;50.948;11.600;2022-09-09T02:55:26;12.00;;;4.20;;
18881;SDS011;9573;50.948;11.600;2022-09-09T02:58:02;11.97;;;3.73;;
18881;SDS011;9573;50.948;11.600;2022-09-09T03:00:33;11.73;;;4.40;;
18881;SDS011;9573;50.948;11.600;2022-09-09T03:03:02;10.70;;;4.00;;
18881;SDS011;9573;50.948;11.600;2022-09-09T03:05:30;12.30;;;4.13;;
18881;SDS011;9573;50.948;11.600;2022-09-09T03:07:57;11.03;;;4.23;;
18881;SDS011;9573;50.948;11.600;2022-09-09T03:10:24;12.10;;;4.10;;
18881;SDS011;9573;50.948;11.600;2022-09-09T03:12:51;11.23;;;3.80;;
18881;SDS011;9573;50.948;11.600;2022-09-09T03:15:20;13.47;;;4.30;;
18881;SDS011;9573;50.948;11.600;2022-09-09T03:17:49;13.13;;;4.03;;
18881;SDS011;9573;50.948;11.600;2022-09-09T03:20:16;12.53;;;3.80;;
18881;SDS011;9573;50.948;11.600;2022-09-09T03:22:43;13.00;;;4.10;;
18881;SDS011;9573;50.948;11.600;2022-09-09T03:25:10;12.23;;;4.13;;
18881;SDS011;9573;50.948;11.600;2022-09-09T03:27:37;17.83;;;3.70;;
18881;SDS011;9573;50.948;11.600;2022-09-09T03:30:05;12.80;;;4.20;;
18881;SDS011;9573;50.948;11.600;2022-09-09T03:32:33;11.67;;;4.47;;
18881;SDS011;9573;50.948;11.600;2022-09-09T03:35:02;17.53;;;4.63;;
18881;SDS011;9573;50.948;11.600;2022-09-09T03:37:29;14.77;;;4.50;;
18881;SDS011;9573;50.948;11.600;2022-09-09T03:39:56;9.77;;;4.27;;
18881;SDS011;9573;50.948;11.600;2022-09-09T03:42:24;14.23;;;4.50;;
18881;SDS011;9573;50.948;11.600;2022-09-09T03:44:52;15.97;;;4.67;;
18881;SDS011;9573;50.948;11.600;2022-09-09T03:47:20;13.57;;;4.10;;
18881;SDS011;9573;50.948;11.600;2022-09-09T03:49:48;9.50;;;3.40;;
18881;SDS011;9573;50.948;11.600;2022-09-09T03:52:16;15.10;;;3.90;;
18881;SDS011;9573;50.948;11.600;2022-09-09T03:54:43;15.77;;;3.50;;
18881;SDS011;9573;50.948;11.600;2022-09-09T03:57:10;9.07;;;3.37;;
18881;SDS011;9573;50.948;11.600;2022-09-09T03:59:38;8.87;;;3.30;;
18881;SDS011;9573;50.948;11.600;2022-09-09T04:02:05;15.90;;;3.17;;
18881;SDS011;9573;50.948;11.600;2022-09-09T04:04:32;10.50;;;3.17;;
18881;SDS011;9573;50.948;11.600;2022-09-09T04:07:00;9.97;;;2.80;;
18881;SDS011;9573;50.948;11.600;2022-09-09T04:09:28;8.27;;;2.40;;
18881;SDS011;9573;50.948;11.600;2022-09-09T04:11:55;7.03;;;2.63;;
18881;SDS011;9573;50.948;11.600;2022-09-09T04:14:22;9.23;;;2.40;;
18881;SDS011;9573;50.948;11.600;2022-09-09T04:16:54;17.50;;;2.60;;
18881;SDS011;9573;50.948;11.600;2022-09-09T04:19:23;9.43;;;2.60;;
18881;SDS011;9573;50.948;11.600;2022-09-09T04:21:50;10.47;;;2.33;;
18881;SDS011;9573;50.948;11.600;2022-09-09T04:24:17;6.27;;;2.37;;
18881;SDS011;9573;50.948;11.600;2022-09-09T04:26:46;10.03;;;2.70;;
18881;SDS011;9573;50.948;11.600;2022-09-09T04:29:14;9.60;;;2.60;;
18881;SDS011;9573;50.948;11.600;2022-09-09T04:31:41;5.13;;;2.50;;
18881;SDS011;9573;50.948;11.600;2022-09-09T04:34:08;7.67;;;2.63;;
18881;SDS011;9573;50.948;11.600;2022-09-09T04:36:35;12.80;;;2.50;;
18881;SDS011;9573;50.948;11.600;2022-09-09T04:39:02;10.23;;;2.60;;
18881;SDS011;9573;50.948;11.600;2022-09-09T04:41:29;6.13;;;2.53;;
18881;SDS011;9573;50.948;11.600;2022-09-09T04:43:59;7.47;;;2.50;;
18881;SDS011;9573;50.948;11.600;2022-09-09T04:46:27;10.47;;;2.90;;
18881;SDS011;9573;50.948;11.600;2022-09-09T04:48:54;8.13;;;2.40;;
18881;SDS011;9573;50.948;11.600;2022-09-09T04:51:21;13.83;;;3.93;;
18881;SDS011;9573;50.948;11.600;2022-09-09T04:53:48;13.20;;;3.13;;
18881;SDS011;9573;50.948;11.600;2022-09-09T04:56:16;4.00;;;2.20;;
18881;SDS011;9573;50.948;11.600;2022-09-09T04:58:44;7.27;;;2.17;;
18881;SDS011;9573;50.948;11.600;2022-09-09T05:01:13;10.77;;;2.53;;
18881;SDS011;9573;50.948;11.600;2022-09-09T05:03:43;9.67;;;2.77;;
18881;SDS011;9573;50.948;11.600;2022-09-09T05:08:41;10.87;;;2.50;;
18881;SDS011;9573;50.948;11.600;2022-09-09T05:11:13;9.23;;;2.40;;
18881;SDS011;9573;50.948;11.600;2022-09-09T05:13:42;10.67;;;2.50;;
18881;SDS011;9573;50.948;11.600;2022-09-09T05:16:10;11.73;;;2.50;;
18881;SDS011;9573;50.948;11.600;2022-09-09T05:18:39;12.13;;;2.60;;
18881;SDS011;9573;50.948;11.600;2022-09-09T05:21:07;8.73;;;2.70;;
18881;SDS011;9573;50.948;11.600;2022-09-09T05:23:35;6.37;;;2.60;;
18881;SDS011;9573;50.948;11.600;2022-09-09T05:26:03;9.43;;;3.23;;
18881;SDS011;9573;50.948;11.600;2022-09-09T05:28:33;12.43;;;3.40;;
18881;SDS011;9573;50.948;11.600;2022-09-09T05:31:02;11.87;;;2.80;;
18881;SDS011;9573;50.948;11.600;2022-09-09T05:33:34;8.63;;;2.70;;
18881;SDS011;9573;50.948;11.600;2022-09-09T05:36:02;8.67;;;2.40;;
18881;SDS011;9573;50.948;11.600;2022-09-09T05:38:33;8.33;;;2.17;;
18881;SDS011;9573;50.948;11.600;2022-09-09T05:41:01;9.50;;;2.77;;
18881;SDS011;9573;50.948;11.600;2022-09-09T05:43:29;12.17;;;3.50;;
18881;SDS011;9573;50.948;11.600;2022-09-09T05:46:01;6.33;;;2.47;;
18881;SDS011;9573;50.948;11.600;2022-09-09T05:48:30;7.33;;;2.57;;
18881;SDS011;9573;50.948;11.600;2022-09-09T05:51:00;13.40;;;4.30;;
18881;SDS011;9573;50.948;11.600;2022-09-09T05:53:29;13.43;;;3.47;;
18881;SDS011;9573;50.948;11.600;2022-09-09T05:55:59;14.90;;;3.10;;
18881;SDS011;9573;50.948;11.600;2022-09-09T05:58:29;11.00;;;2.70;;
18881;SDS011;9573;50.948;11.600;2022-09-09T06:01:03;7.87;;;2.40;;
18881;SDS011;9573;50.948;11.600;2022-09-09T06:03:32;16.20;;;4.17;;
18881;SDS011;9573;50.948;11.600;2022-09-09T06:06:02;12.53;;;4.40;;
18881;SDS011;9573;50.948;11.600;2022-09-09T06:08:31;12.70;;;3.00;;
18881;SDS011;9573;50.948;11.600;2022-09-09T06:11:02;16.00;;;3.17;;
18881;SDS011;9573;50.948;11.600;2022-09-09T06:13:30;9.07;;;3.30;;
18881;SDS011;9573;50.948;11.600;2022-09-09T06:15:58;15.03;;;3.83;;
18881;SDS011;9573;50.948;11.600;2022-09-09T06:18:26;12.40;;;4.10;;
18881;SDS011;9573;50.948;11.600;2022-09-09T06:20:56;12.03;;;3.60;;
18881;SDS011;9573;50.948;11.600;2022-09-09T06:23:25;12.73;;;4.13;;
18881;SDS011;9573;50.948;11.600;2022-09-09T06:26:02;12.53;;;4.53;;
18881;SDS011;9573;50.948;11.600;2022-09-09T06:28:31;12.50;;;3.20;;
18881;SDS011;9573;50.948;11.600;2022-09-09T06:30:59;15.80;;;3.90;;
18881;SDS011;9573;50.948;11.600;2022-09-09T06:33:27;15.03;;;4.60;;
18881;SDS011;9573;50.948;11.600;2022-09-09T06:35:58;14.97;;;5.07;;
18881;SDS011;9573;50.948;11.600;2022-09-09T06:38:26;20.63;;;6.33;;
18881;SDS011;9573;50.948;11.600;2022-09-09T06:40:53;11.07;;;3.43;;
18881;SDS011;9573;50.948;11.600;2022-09-09T06:43:23;13.60;;;3.80;;
18881;SDS011;9573;50.948;11.600;2022-09-09T06:45:54;16.10;;;4.23;;
18881;SDS011;9573;50.948;11.600;2022-09-09T06:48:25;10.60;;;3.87;;
18881;SDS011;9573;50.948;11.600;2022-09-09T06:51:01;14.67;;;4.20;;
18881;SDS011;9573;50.948;11.600;2022-09-09T06:53:29;13.97;;;4.30;;
18881;SDS011;9573;50.948;11.600;2022-09-09T06:55:58;18.00;;;6.43;;
18881;SDS011;9573;50.948;11.600;2022-09-09T06:58:26;18.00;;;6.03;;
18881;SDS011;9573;50.948;11.600;2022-09-09T07:01:00;16.07;;;5.97;;
18881;SDS011;9573;50.948;11.600;2022-09-09T07:03:29;11.73;;;3.70;;
18881;SDS011;9573;50.948;11.600;2022-09-09T07:05:56;15.43;;;2.47;;
18881;SDS011;9573;50.948;11.600;2022-09-09T07:08:25;5.90;;;2.70;;
18881;SDS011;9573;50.948;11.600;2022-09-09T07:10:53;15.50;;;2.73;;
18881;SDS011;9573;50.948;11.600;2022-09-09T07:13:23;16.80;;;4.77;;
18881;SDS011;9573;50.948;11.600;2022-09-09T07:15:51;9.37;;;3.10;;
18881;SDS011;9573;50.948;11.600;2022-09-09T07:18:18;12.03;;;3.30;;
18881;SDS011;9573;50.948;11.600;2022-09-09T07:20:52;15.87;;;3.33;;
18881;SDS011;9573;50.948;11.600;2022-09-09T07:23:21;7.93;;;2.80;;
18881;SDS011;9573;50.948;11.600;2022-09-09T07:25:49;17.43;;;6.20;;
18881;SDS011;9573;50.948;11.600;2022-09-09T07:28:17;11.27;;;3.10;;
18881;SDS011;9573;50.948;11.600;2022-09-09T07:30:52;12.10;;;2.57;;
18881;SDS011;9573;50.948;11.600;2022-09-09T07:33:20;17.77;;;6.03;;
18881;SDS011;9573;50.948;11.600;2022-09-09T07:35:47;6.27;;;2.03;;
18881;SDS011;9573;50.948;11.600;2022-09-09T07:38:15;9.03;;;2.20;;
18881;SDS011;9573;50.948;11.600;2022-09-09T07:40:42;7.27;;;2.23;;
18881;SDS011;9573;50.948;11.600;2022-09-09T07:43:11;10.27;;;2.70;;
18881;SDS011;9573;50.948;11.600;2022-09-09T07:45:38;9.63;;;2.00;;
18881;SDS011;9573;50.948;11.600;2022-09-09T07:48:07;9.17;;;2.77;;
18881;SDS011;9573;50.948;11.600;2022-09-09T07:50:35;11.30;;;2.30;;
18881;SDS011;9573;50.948;11.600;2022-09-09T07:53:04;9.23;;;1.90;;
18881;SDS011;9573;50.948;11.600;2022-09-09T07:55:31;12.33;;;4.37;;
18881;SDS011;9573;50.948;11.600;2022-09-09T07:57:58;14.20;;;4.43;;
18881;SDS011;9573;50.948;11.600;2022-09-09T08:00:27;13.87;;;3.50;;
18881;SDS011;9573;50.948;11.600;2022-09-09T08:02:54;7.93;;;3.60;;
18881;SDS011;9573;50.948;11.600;2022-09-09T08:05:21;10.10;;;2.83;;
18881;SDS011;9573;50.948;11.600;2022-09-09T08:07:49;19.97;;;5.83;;
18881;SDS011;9573;50.948;11.600;2022-09-09T08:10:16;9.67;;;3.23;;
18881;SDS011;9573;50.948;11.600;2022-09-09T08:12:43;9.53;;;3.23;;
18881;SDS011;9573;50.948;11.600;2022-09-09T08:15:11;12.10;;;2.70;;
18881;SDS011;9573;50.948;11.600;2022-09-09T08:17:39;11.97;;;2.80;;
18881;SDS011;9573;50.948;11.600;2022-09-09T08:20:08;5.87;;;2.20;;
18881;SDS011;9573;50.948;11.600;2022-09-09T08:22:36;10.87;;;3.37;;
18881;SDS011;9573;50.948;11.600;2022-09-09T08:25:04;10.93;;;2.33;;
18881;SDS011;9573;50.948;11.600;2022-09-09T08:27:33;10.00;;;3.20;;
18881;SDS011;9573;50.948;11.600;2022-09-09T08:30:00;5.32;;;1.90;;
18881;SDS011;9573;50.948;11.600;2022-09-09T08:32:28;6.50;;;1.80;;
18881;SDS011;9573;50.948;11.600;2022-09-09T08:34:56;8.70;;;2.20;;
18881;SDS011;9573;50.948;11.600;2022-09-09T08:37:23;4.05;;;1.90;;
18881;SDS011;9573;50.948;11.600;2022-09-09T08:39:50;5.13;;;2.00;;
18881;SDS011;9573;50.948;11.600;2022-09-09T08:42:28;4.97;;;2.20;;
18881;SDS011;9573;50.948;11.600;2022-09-09T08:45:10;3.58;;;1.67;;
18881;SDS011;9573;50.948;11.600;2022-09-09T08:47:53;17.92;;;7.28;;
18881;SDS011;9573;50.948;11.600;2022-09-09T08:50:32;19.48;;;7.80;;
18881;SDS011;9573;50.948;11.600;2022-09-09T08:53:04;15.75;;;6.45;;
18881;SDS011;9573;50.948;11.600;2022-09-09T08:55:39;8.93;;;2.65;;
18881;SDS011;9573;50.948;11.600;2022-09-09T08:58:12;9.93;;;4.47;;
18881;SDS011;9573;50.948;11.600;2022-09-09T09:00:44;10.63;;;3.38;;
18881;SDS011;9573;50.948;11.600;2022-09-09T09:03:29;9.55;;;2.80;;
18881;SDS011;9573;50.948;11.600;2022-09-09T09:06:09;9.60;;;1.90;;
18881;SDS011;9573;50.948;11.600;2022-09-09T09:08:54;8.35;;;1.92;;
18881;SDS011;9573;50.948;11.600;2022-09-09T09:11:33;5.75;;;1.83;;
18881;SDS011;9573;50.948;11.600;2022-09-09T09:14:03;7.68;;;2.38;;
18881;SDS011;9573;50.948;11.600;2022-09-09T09:16:38;5.03;;;2.00;;
18881;SDS011;9573;50.948;11.600;2022-09-09T09:19:13;9.45;;;3.42;;
18881;SDS011;9573;50.948;11.600;2022-09-09T09:21:44;6.18;;;1.92;;
18881;SDS011;9573;50.948;11.600;2022-09-09T09:24:19;20.83;;;7.55;;
18881;SDS011;9573;50.948;11.600;2022-09-09T09:26:51;18.85;;;6.10;;
18881;SDS011;9573;50.948;11.600;2022-09-09T09:29:19;8.35;;;2.40;;
18881;SDS011;9573;50.948;11.600;2022-09-09T09:31:48;9.45;;;1.80;;
18881;SDS011;9573;50.948;11.600;2022-09-09T09:34:20;5.75;;;1.42;;
18881;SDS011;9573;50.948;11.600;2022-09-09T09:36:53;18.40;;;7.88;;
18881;SDS011;9573;50.948;11.600;2022-09-09T09:39:23;6.32;;;1.70;;
18881;SDS011;9573;50.948;11.600;2022-09-09T09:41:52;10.18;;;2.10;;
18881;SDS011;9573;50.948;11.600;2022-09-09T09:44:22;15.75;;;5.25;;
18881;SDS011;9573;50.948;11.600;2022-09-09T09:46:52;12.80;;;3.97;;
18881;SDS011;9573;50.948;11.600;2022-09-09T09:49:19;13.63;;;3.90;;
18881;SDS011;9573;50.948;11.600;2022-09-09T09:51:46;12.63;;;3.90;;
18881;SDS011;9573;50.948;11.600;2022-09-09T09:54:17;13.63;;;5.45;;
18881;SDS011;9573;50.948;11.600;2022-09-09T09:56:49;10.07;;;3.28;;
18881;SDS011;9573;50.948;11.600;2022-09-09T09:59:19;15.68;;;3.83;;
18881;SDS011;9573;50.948;11.600;2022-09-09T10:01:49;14.52;;;4.28;;
18881;SDS011;9573;50.948;11.600;2022-09-09T10:04:17;8.80;;;3.05;;
18881;SDS011;9573;50.948;11.600;2022-09-09T10:06:49;8.48;;;2.00;;
18881;SDS011;9573;50.948;11.600;2022-09-09T10:09:24;8.95;;;2.50;;
18881;SDS011;9573;50.948;11.600;2022-09-09T10:11:59;13.23;;;2.80;;
18881;SDS011;9573;50.948;11.600;2022-09-09T10:14:35;8.90;;;2.83;;
18881;SDS011;9573;50.948;11.600;2022-09-09T10:17:14;16.55;;;6.30;;
18881;SDS011;9573;50.948;11.600;2022-09-09T10:19:54;11.27;;;3.20;;
18881;SDS011;9573;50.948;11.600;2022-09-09T10:22:43;6.18;;;2.28;;
18881;SDS011;9573;50.948;11.600;2022-09-09T10:25:24;9.63;;;3.58;;
18881;SDS011;9573;50.948;11.600;2022-09-09T10:31:11;19.42;;;5.50;;
18881;SDS011;9573;50.948;11.600;2022-09-09T10:33:49;9.40;;;2.78;;
18881;SDS011;9573;50.948;11.600;2022-09-09T10:36:26;12.27;;;3.10;;
18881;SDS011;9573;50.948;11.600;2022-09-09T10:38:57;7.05;;;2.38;;
18881;SDS011;9573;50.948;11.600;2022-09-09T10:41:38;5.88;;;1.80;;
18881;SDS011;9573;50.948;11.600;2022-09-09T10:44:24;7.55;;;2.00;;
18881;SDS011;9573;50.948;11.600;2022-09-09T10:47:09;11.45;;;3.95;;
18881;SDS011;9573;50.948;11.600;2022-09-09T10:50:05;10.95;;;3.40;;
18881;SDS011;9573;50.948;11.600;2022-09-09T10:52:49;12.48;;;3.55;;
18881;SDS011;9573;50.948;11.600;2022-09-09T10:55:27;9.93;;;2.42;;
18881;SDS011;9573;50.948;11.600;2022-09-09T10:58:03;7.32;;;2.45;;
18881;SDS011;9573;50.948;11.600;2022-09-09T11:00:37;11.02;;;3.78;;
18881;SDS011;9573;50.948;11.600;2022-09-09T11:03:09;9.73;;;1.83;;
18881;SDS011;9573;50.948;11.600;2022-09-09T11:05:45;9.57;;;1.98;;
18881;SDS011;9573;50.948;11.600;2022-09-09T11:08:18;4.35;;;1.48;;
18881;SDS011;9573;50.948;11.600;2022-09-09T11:10:48;6.78;;;1.40;;
18881;SDS011;9573;50.948;11.600;2022-09-09T11:13:23;8.88;;;2.63;;
18881;SDS011;9573;50.948;11.600;2022-09-09T11:16:03;7.70;;;1.98;;
18881;SDS011;9573;50.948;11.600;2022-09-09T11:18:43;7.75;;;1.80;;
18881;SDS011;9573;50.948;11.600;2022-09-09T11:21:15;10.18;;;1.58;;
18881;SDS011;9573;50.948;11.600;2022-09-09T11:23:48;5.05;;;1.70;;
18881;SDS011;9573;50.948;11.600;2022-09-09T11:26:23;3.33;;;1.40;;
18881;SDS011;9573;50.948;11.600;2022-09-09T11:29:02;4.55;;;1.50;;
18881;SDS011;9573;50.948;11.600;2022-09-09T11:32:09;5.03;;;1.50;;
18881;SDS011;9573;50.948;11.600;2022-09-09T11:35:01;5.63;;;1.50;;
18881;SDS011;9573;50.948;11.600;2022-09-09T11:37:51;6.35;;;1.55;;
18881;SDS011;9573;50.948;11.600;2022-09-09T11:40:42;6.00;;;1.80;;
18881;SDS011;9573;50.948;11.600;2022-09-09T11:43:10;5.22;;;1.48;;
18881;SDS011;9573;50.948;11.600;2022-09-09T11:45:42;7.50;;;1.73;;
18881;SDS011;9573;50.948;11.600;2022-09-09T11:48:24;10.60;;;1.52;;
18881;SDS011;9573;50.948;11.600;2022-09-09T11:51:00;6.82;;;1.77;;
18881;SDS011;9573;50.948;11.600;2022-09-09T11:53:34;7.32;;;1.30;;
18881;SDS011;9573;50.948;11.600;2022-09-09T11:56:22;10.02;;;1.70;;
18881;SDS011;9573;50.948;11.600;2022-09-09T11:59:00;6.95;;;1.88;;
18881;SDS011;9573;50.948;11.600;2022-09-09T12:01:37;7.88;;;1.50;;
18881;SDS011;9573;50.948;11.600;2022-09-09T12:06:59;5.03;;;1.60;;
18881;SDS011;9573;50.948;11.600;2022-09-09T12:09:32;3.75;;;1.42;;
18881;SDS011;9573;50.948;11.600;2022-09-09T12:12:24;6.47;;;1.65;;
18881;SDS011;9573;50.948;11.600;2022-09-09T12:14:55;6.35;;;1.55;;
18881;SDS011;9573;50.948;11.600;2022-09-09T12:17:44;3.35;;;1.20;;
18881;SDS011;9573;50.948;11.600;2022-09-09T12:20:14;4.88;;;1.50;;
18881;SDS011;9573;50.948;11.600;2022-09-09T12:25:55;2.30;;;1.17;;
18881;SDS011;9573;50.948;11.600;2022-09-09T12:28:39;3.40;;;0.87;;
18881;SDS011;9573;50.948;11.600;2022-09-09T12:31:21;0.00;;;0.00;;
18881;SDS011;9573;50.948;11.600;2022-09-09T12:34:02;0.00;;;0.00;;
18881;SDS011;9573;50.948;11.600;2022-09-09T12:36:37;0.07;;;0.07;;
18881;SDS011;9573;50.948;11.600;2022-09-09T12:39:10;0.10;;;0.10;;
18881;SDS011;9573;50.948;11.600;2022-09-09T12:41:50;0.00;;;0.00;;
18881;SDS011;9573;50.948;11.600;2022-09-09T12:44:22;0.00;;;0.00;;
18881;SDS011;9573;50.948;11.600;2022-09-09T12:46:50;0.20;;;0.20;;
18881;SDS011;9573;50.948;11.600;2022-09-09T12:49:26;5.10;;;0.20;;
18881;SDS011;9573;50.948;11.600;2022-09-09T12:51:59;0.00;;;0.00;;
18881;SDS011;9573;50.948;11.600;2022-09-09T12:54:30;0.97;;;0.47;;
18881;SDS011;9573;50.948;11.600;2022-09-09T12:56:59;0.00;;;0.00;;
18881;SDS011;9573;50.948;11.600;2022-09-09T12:59:26;0.67;;;0.37;;
18881;SDS011;9573;50.948;11.600;2022-09-09T13:02:11;0.10;;;0.10;;
18881;SDS011;9573;50.948;11.600;2022-09-09T13:04:46;3.47;;;0.70;;
18881;SDS011;9573;50.948;11.600;2022-09-09T13:07:15;0.00;;;0.00;;
18881;SDS011;9573;50.948;11.600;2022-09-09T13:09:43;0.10;;;0.10;;
18881;SDS011;9573;50.948;11.600;2022-09-09T13:12:13;0.20;;;0.20;;
18881;SDS011;9573;50.948;11.600;2022-09-09T13:14:44;0.20;;;0.20;;
18881;SDS011;9573;50.948;11.600;2022-09-09T13:17:17;0.10;;;0.10;;
18881;SDS011;9573;50.948;11.600;2022-09-09T13:19:50;0.23;;;0.20;;
18881;SDS011;9573;50.948;11.600;2022-09-09T13:22:20;0.27;;;0.27;;
18881;SDS011;9573;50.948;11.600;2022-09-09T13:25:00;0.10;;;0.10;;
18881;SDS011;9573;50.948;11.600;2022-09-09T13:27:32;0.13;;;0.13;;
18881;SDS011;9573;50.948;11.600;2022-09-09T13:32:59;0.33;;;0.33;;
18881;SDS011;9573;50.948;11.600;2022-09-09T13:35:34;0.10;;;0.10;;
18881;SDS011;9573;50.948;11.600;2022-09-09T13:38:12;0.20;;;0.20;;
18881;SDS011;9573;50.948;11.600;2022-09-09T13:40:40;0.30;;;0.30;;
18881;SDS011;9573;50.948;11.600;2022-09-09T13:43:21;0.20;;;0.20;;
18881;SDS011;9573;50.948;11.600;2022-09-09T13:45:54;0.20;;;0.20;;
18881;SDS011;9573;50.948;11.600;2022-09-09T13:48:23;0.40;;;0.40;;
18881;SDS011;9573;50.948;11.600;2022-09-09T13:50:56;0.10;;;0.10;;
18881;SDS011;9573;50.948;11.600;2022-09-09T13:53:26;0.30;;;0.30;;
18881;SDS011;9573;50.948;11.600;2022-09-09T13:55:55;0.53;;;0.43;;
18881;SDS011;9573;50.948;11.600;2022-09-09T13:58:26;0.00;;;0.00;;
18881;SDS011;9573;50.948;11.600;2022-09-09T14:00:53;0.10;;;0.10;;
18881;SDS011;9573;50.948;11.600;2022-09-09T14:03:20;0.10;;;0.10;;
18881;SDS011;9573;50.948;11.600;2022-09-09T14:05:48;0.00;;;0.00;;
18881;SDS011;9573;50.948;11.600;2022-09-09T14:08:20;0.10;;;0.10;;
18881;SDS011;9573;50.948;11.600;2022-09-09T14:10:50;5.57;;;0.83;;
18881;SDS011;9573;50.948;11.600;2022-09-09T14:13:18;0.00;;;0.00;;
18881;SDS011;9573;50.948;11.600;2022-09-09T14:15:47;0.10;;;0.10;;
18881;SDS011;9573;50.948;11.600;2022-09-09T14:18:15;1.80;;;0.80;;
18881;SDS011;9573;50.948;11.600;2022-09-09T14:20:43;0.30;;;0.30;;
18881;SDS011;9573;50.948;11.600;2022-09-09T14:23:11;0.20;;;0.20;;
18881;SDS011;9573;50.948;11.600;2022-09-09T14:25:42;0.77;;;0.40;;
18881;SDS011;9573;50.948;11.600;2022-09-09T14:28:10;0.77;;;0.40;;
18881;SDS011;9573;50.948;11.600;2022-09-09T14:30:39;0.10;;;0.10;;
18881;SDS011;9573;50.948;11.600;2022-09-09T14:33:10;0.10;;;0.10;;
18881;SDS011;9573;50.948;11.600;2022-09-09T14:35:39;0.00;;;0.00;;
18881;SDS011;9573;50.948;11.600;2022-09-09T14:38:07;0.00;;;0.00;;
18881;SDS011;9573;50.948;11.600;2022-09-09T14:40:34;0.17;;;0.17;;
18881;SDS011;9573;50.948;11.600;2022-09-09T14:43:04;2.23;;;0.53;;
18881;SDS011;9573;50.948;11.600;2022-09-09T14:45:32;1.57;;;0.37;;
18881;SDS011;9573;50.948;11.600;2022-09-09T14:48:02;0.60;;;0.50;;
18881;SDS011;9573;50.948;11.600;2022-09-09T14:50:30;0.00;;;0.00;;
18881;SDS011;9573;50.948;11.600;2022-09-09T14:52:57;2.53;;;0.80;;
18881;SDS011;9573;50.948;11.600;2022-09-09T14:55:24;0.00;;;0.00;;
18881;SDS011;9573;50.948;11.600;2022-09-09T14:57:53;0.53;;;0.27;;
18881;SDS011;9573;50.948;11.600;2022-09-09T15:00:22;0.60;;;0.47;;
18881;SDS011;9573;50.948;11.600;2022-09-09T15:02:51;2.90;;;0.40;;
18881;SDS011;9573;50.948;11.600;2022-09-09T15:05:19;0.30;;;0.10;;
18881;SDS011;9573;50.948;11.600;2022-09-09T15:07:46;12.83;;;0.53;;
18881;SDS011;9573;50.948;11.600;2022-09-09T15:10:13;0.10;;;0.10;;
18881;SDS011;9573;50.948;11.600;2022-09-09T15:12:42;0.20;;;0.20;;
18881;SDS011;9573;50.948;11.600;2022-09-09T15:15:10;0.10;;;0.10;;
18881;SDS011;9573;50.948;11.600;2022-09-09T15:17:39;6.80;;;0.90;;
18881;SDS011;9573;50.948;11.600;2022-09-09T15:20:06;0.23;;;0.20;;
18881;SDS011;9573;50.948;11.600;2022-09-09T15:22:35;0.20;;;0.20;;
18881;SDS011;9573;50.948;11.600;2022-09-09T15:25:03;0.00;;;0.00;;
18881;SDS011;9573;50.948;11.600;2022-09-09T15:27:33;0.80;;;0.40;;